Time;durP1;ratioP1;P1;durP2;ratioP2;P2;SDS_P1;SDS_P2;PMS_P1;PMS_P2;Temp;Humidity;BMP_temperature;BMP_pressure;BME280_temperature;BME280_humidity;BME280_pressure;Samples;Min_cycle;Max_cycle;Signal;HPM_P1;HPM_P2
2023/05/26 00:01:01;;;;;;;0.50;0.50;;;21.30;58.20;;;21.73;41.15;95524.50;5074802;28;20196;-34
2023/05/26 00:03:28;;;;;;;0.40;0.40;;;21.30;58.30;;;21.71;41.22;95530.06;5075710;28;20560;-34
2023/05/26 00:05:56;;;;;;;0.40;0.40;;;21.30;58.30;;;21.69;41.30;95516.19;5075607;28;20536;-34
2023/05/26 00:08:23;;;;;;;0.50;0.50;;;21.30;58.30;;;21.69;41.04;95526.84;5075179;28;20274;-34
2023/05/26 00:10:50;;;;;;;0.40;0.40;;;21.20;58.10;;;21.65;41.01;95517.72;5075473;28;20301;-35
2023/05/26 00:13:17;;;;;;;0.40;0.40;;;21.20;58.20;;;21.64;41.14;95512.63;5074340;28;20292;-35
2023/05/26 00:15:44;;;;;;;0.40;0.40;;;21.20;59.50;;;21.61;41.03;95511.25;5075472;28;20582;-34
2023/05/26 00:18:12;;;;;;;0.50;0.50;;;21.20;58.30;;;21.59;41.01;95516.03;5075052;28;20239;-35
2023/05/26 00:20:40;;;;;;;0.40;0.40;;;21.20;58.30;;;21.57;40.87;95510.16;5075419;28;20629;-35
2023/05/26 00:23:07;;;;;;;0.40;0.40;;;21.10;58.20;;;21.56;41.13;95511.16;5075142;28;20288;-35
2023/05/26 00:25:34;;;;;;;0.50;0.50;;;21.10;58.30;;;21.52;41.34;95510.84;5074840;28;20194;-34
2023/05/26 00:28:01;;;;;;;0.50;0.50;;;21.10;58.40;;;21.51;41.07;95516.44;5074837;28;20229;-38
2023/05/26 00:30:29;;;;;;;0.40;0.40;;;21.10;58.50;;;21.48;41.28;95514.25;5074967;28;20671;-35
2023/05/26 00:32:57;;;;;;;0.40;0.40;;;21.10;58.40;;;21.44;41.37;95514.72;5074075;28;20218;-34
2023/05/26 00:35:24;;;;;;;0.47;0.47;;;21.10;58.50;;;21.43;41.42;95514.97;5073098;28;20217;-34
2023/05/26 00:37:51;;;;;;;0.43;0.43;;;21.00;58.20;;;21.39;41.19;95505.88;5057266;28;20674;-35
2023/05/26 00:40:18;;;;;;;0.55;0.55;;;21.00;58.30;;;21.36;41.18;95514.34;5074922;28;20197;-35
2023/05/26 00:42:46;;;;;;;0.50;0.50;;;21.00;58.30;;;21.31;41.38;95504.41;5074046;28;20202;-36
2023/05/26 00:45:13;;;;;;;0.47;0.47;;;21.00;58.30;;;21.28;41.13;95516.38;5075378;28;20199;-37
2023/05/26 00:47:40;;;;;;;0.50;0.50;;;21.00;58.30;;;21.24;41.39;95509.13;5057408;28;20226;-34
2023/05/26 00:50:12;;;;;;;0.43;0.43;;;20.90;58.40;;;21.21;41.07;95512.28;5074851;28;20307;-34
2023/05/26 00:52:40;;;;;;;0.45;0.45;;;20.90;58.40;;;21.19;41.13;95511.69;5074298;28;20543;-34
2023/05/26 00:55:08;;;;;;;0.40;0.40;;;20.80;59.60;;;21.16;41.43;95513.00;5074197;28;20287;-34
2023/05/26 00:57:37;;;;;;;0.45;0.45;;;20.80;58.30;;;21.13;41.64;95508.16;5074794;28;20634;-34
2023/05/26 01:00:09;;;;;;;0.40;0.40;;;20.80;58.40;;;21.11;41.40;95512.94;5074629;28;20544;-34
2023/05/26 01:02:40;;;;;;;0.40;0.40;;;20.70;58.30;;;21.07;41.56;95509.13;5074991;28;20221;-34
2023/05/26 01:05:08;;;;;;;0.60;0.60;;;20.70;58.20;;;21.03;41.34;95508.81;5075035;28;20237;-34
2023/05/26 01:07:36;;;;;;;0.43;0.43;;;20.70;58.30;;;20.99;41.24;95510.34;5073708;28;20618;-34
2023/05/26 01:10:04;;;;;;;0.40;0.40;;;20.70;58.30;;;20.95;41.74;95507.34;5074436;28;20301;-34
2023/05/26 01:13:07;;;;;;;0.60;0.60;;;20.60;58.30;;;20.87;41.56;95510.44;5074438;28;20295;-34
2023/05/26 01:15:41;;;;;;;0.50;0.50;;;20.60;58.30;;;20.85;41.71;95509.03;5057258;28;20196;-34
2023/05/26 01:18:17;;;;;;;0.50;0.50;;;20.60;58.30;;;20.76;41.66;95504.13;5074472;28;20181;-34
2023/05/26 01:20:53;;;;;;;0.40;0.40;;;20.50;58.20;;;20.69;41.39;95506.09;5073729;28;20194;-34
2023/05/26 01:23:37;;;;;;;0.40;0.40;;;20.50;58.10;;;20.62;41.71;95510.78;5057095;28;20198;-34
2023/05/26 01:26:25;;;;;;;0.50;0.50;;;20.40;58.00;;;20.50;41.81;95504.72;5074569;28;20183;-34
2023/05/26 01:28:59;;;;;;;0.50;0.50;;;20.40;58.00;;;20.38;41.91;95502.09;5074265;28;20613;-34
2023/05/26 01:31:26;;;;;;;0.50;0.50;;;20.30;58.00;;;20.29;41.50;95502.47;5073447;28;20220;-34
2023/05/26 01:33:54;;;;;;;0.60;0.60;;;20.30;58.00;;;20.23;41.53;95506.09;5073839;28;20187;-34
2023/05/26 01:36:22;;;;;;;0.40;0.40;;;20.20;58.00;;;20.18;42.12;95499.84;5074089;28;20266;-34
2023/05/26 01:38:49;;;;;;;0.50;0.50;;;20.20;59.50;;;20.12;41.86;95507.75;5073275;28;20715;-34
2023/05/26 01:41:35;;;;;;;0.50;0.50;;;20.10;58.20;;;20.04;41.85;95505.47;5073409;28;20209;-34
2023/05/26 01:44:10;;;;;;;0.43;0.43;;;20.00;58.10;;;19.95;42.07;95499.72;5073355;28;20306;-36
2023/05/26 01:46:51;;;;;;;0.50;0.50;;;20.00;58.20;;;19.86;42.21;95498.47;5057679;28;20203;-34
2023/05/26 01:49:26;;;;;;;0.43;0.43;;;19.90;58.30;;;19.79;42.40;95508.41;5076914;28;20194;-34
2023/05/26 01:52:07;;;;;;;0.50;0.50;;;19.80;58.20;;;19.70;42.18;95500.00;5077458;28;20236;-34
2023/05/26 01:54:46;;;;;;;0.50;0.50;;;19.80;58.40;;;19.67;42.18;95505.78;5077049;28;20194;-35
2023/05/26 01:57:15;;;;;;;0.50;0.50;;;19.70;58.60;;;19.67;42.59;95505.78;5076984;28;20618;-34
2023/05/26 01:59:43;;;;;;;0.50;0.50;;;19.60;58.60;;;19.66;42.63;95501.50;5077103;28;20215;-34
2023/05/26 02:02:10;;;;;;;0.50;0.50;;;19.60;58.80;;;19.65;42.49;95500.69;5060077;28;20740;-34
2023/05/26 02:04:38;;;;;;;0.50;0.50;;;19.50;58.80;;;19.64;42.93;95501.72;5076750;28;20583;-34
2023/05/26 02:07:07;;;;;;;0.50;0.50;;;19.50;58.90;;;19.65;42.41;95498.03;5077642;28;20193;-34
2023/05/26 02:09:35;;;;;;;0.40;0.40;;;19.50;59.10;;;19.65;42.89;95502.53;5076388;28;20210;-34
2023/05/26 02:12:03;;;;;;;0.50;0.50;;;19.50;59.20;;;19.64;42.42;95491.09;5076393;28;20194;-34
2023/05/26 02:14:30;;;;;;;0.60;0.60;;;19.40;59.30;;;19.65;42.49;95497.22;5077652;28;20200;-34
2023/05/26 02:16:57;;;;;;;0.50;0.50;;;19.40;59.40;;;19.66;42.80;95490.84;5077709;28;20608;-34
2023/05/26 02:19:25;;;;;;;0.50;0.50;;;19.40;59.40;;;19.67;42.70;95489.81;5076245;28;20191;-35
2023/05/26 02:21:52;;;;;;;0.50;0.50;;;19.40;59.60;;;19.63;42.85;95500.09;5076420;28;20536;-37
2023/05/26 02:24:21;;;;;;;0.50;0.50;;;19.40;59.50;;;19.59;43.24;95498.16;5077295;28;20195;-34
2023/05/26 02:26:48;;;;;;;0.50;0.50;;;19.40;59.50;;;19.54;42.80;95500.72;5077327;28;20212;-34
2023/05/26 02:29:15;;;;;;;0.40;0.40;;;19.40;59.40;;;19.43;42.94;95505.81;5077238;28;20203;-35
2023/05/26 02:31:42;;;;;;;0.50;0.50;;;19.30;59.30;;;19.32;43.66;95503.97;5077435;28;20284;-34
2023/05/26 02:34:10;;;;;;;0.50;0.50;;;19.40;59.50;;;19.20;43.34;95503.97;5077393;28;20187;-34
2023/05/26 02:36:37;;;;;;;0.60;0.60;;;19.30;59.30;;;19.09;43.69;95508.25;5078261;28;20518;-33
2023/05/26 02:39:05;;;;;;;0.50;0.50;;;19.20;59.30;;;18.96;43.93;95498.63;5077612;28;20187;-33
2023/05/26 02:41:32;;;;;;;0.50;0.50;;;19.10;59.40;;;18.87;44.02;95508.78;5076128;28;20198;-33
2023/05/26 02:43:59;;;;;;;0.40;0.40;;;19.10;60.50;;;18.79;44.24;95511.75;5077255;28;20562;-33
2023/05/26 02:46:29;;;;;;;0.60;0.60;;;19.00;60.70;;;18.72;43.93;95505.75;5077186;28;20202;-33
2023/05/26 02:49:00;;;;;;;0.50;0.50;;;18.90;59.60;;;18.64;44.04;95506.88;5075762;28;20203;-33
2023/05/26 02:51:27;;;;;;;0.45;0.45;;;18.80;59.70;;;18.59;44.37;95503.28;5075868;28;20302;-33
2023/05/26 02:53:54;;;;;;;0.50;0.50;;;18.70;59.70;;;18.54;44.16;95502.13;5076992;28;20198;-33
2023/05/26 02:56:21;;;;;;;0.50;0.50;;;18.70;59.90;;;18.50;44.30;95502.81;5076705;28;20187;-34
2023/05/26 02:58:48;;;;;;;0.50;0.50;;;18.60;60.00;;;18.46;44.62;95513.06;5074578;28;20298;-33
2023/05/26 03:01:16;;;;;;;0.52;0.52;;;18.60;60.10;;;18.40;44.95;95504.16;5076591;28;20202;-33
2023/05/26 03:03:43;;;;;;;0.52;0.52;;;18.50;60.20;;;18.33;44.63;95507.97;5077173;28;20195;-33
2023/05/26 03:06:10;;;;;;;0.57;0.57;;;18.50;60.30;;;18.26;44.49;95504.56;5075566;28;20203;-34
2023/05/26 03:08:38;;;;;;;0.50;0.50;;;18.40;60.20;;;18.20;44.66;95509.75;5076189;28;20195;-33
2023/05/26 03:11:05;;;;;;;0.50;0.50;;;18.40;60.30;;;18.17;44.84;95504.09;5075257;28;20229;-33
2023/05/26 03:13:39;;;;;;;0.60;0.60;;;18.30;60.30;;;18.11;44.55;95508.44;5075323;28;20261;-33
2023/05/26 03:16:06;;;;;;;0.60;0.60;;;18.20;60.30;;;18.09;45.16;95507.88;5058968;28;20229;-33
2023/05/26 03:18:34;;;;;;;0.50;0.50;;;18.20;60.40;;;18.01;45.00;95508.97;5075316;28;20583;-33
2023/05/26 03:21:02;;;;;;;0.50;0.50;;;18.20;60.50;;;17.98;45.07;95514.75;5075090;28;20582;-33
2023/05/26 03:23:30;;;;;;;0.50;0.50;;;18.10;60.50;;;17.93;45.27;95512.72;5075247;28;20217;-33
2023/05/26 03:25:58;;;;;;;0.50;0.50;;;18.10;60.70;;;17.88;45.53;95512.59;5075127;28;20630;-33
2023/05/26 03:28:27;;;;;;;0.50;0.50;;;18.00;60.60;;;17.85;45.56;95505.06;5059000;28;20202;-33
2023/05/26 03:30:57;;;;;;;0.50;0.50;;;18.00;60.70;;;17.82;45.46;95508.19;5075516;28;20242;-33
2023/05/26 03:33:28;;;;;;;0.50;0.50;;;17.90;60.80;;;17.80;45.66;95507.59;5075010;28;20205;-33
2023/05/26 03:35:55;;;;;;;0.50;0.50;;;17.90;60.90;;;17.80;45.74;95506.75;5074970;28;20195;-33
2023/05/26 03:38:23;;;;;;;0.50;0.50;;;17.90;61.00;;;17.82;45.79;95510.84;5074928;28;20665;-33
2023/05/26 03:40:50;;;;;;;0.60;0.60;;;17.80;61.00;;;17.87;45.39;95508.31;5075796;28;20197;-34
2023/05/26 03:43:18;;;;;;;0.50;0.50;;;17.80;61.30;;;17.90;45.54;95513.16;5074837;28;20203;-33
2023/05/26 03:45:46;;;;;;;0.60;0.60;;;17.80;61.40;;;17.90;45.62;95512.38;5074781;28;20207;-33
2023/05/26 03:48:14;;;;;;;0.50;0.50;;;17.80;61.50;;;17.92;45.76;95508.44;5075583;28;20198;-33
2023/05/26 03:50:46;;;;;;;0.50;0.50;;;17.80;61.70;;;17.93;45.96;95507.41;5074454;28;20215;-33
2023/05/26 03:53:13;;;;;;;0.50;0.50;;;17.90;61.80;;;17.96;45.79;95506.19;5058395;28;20202;-33
2023/05/26 03:55:41;;;;;;;0.57;0.57;;;17.90;61.80;;;17.99;45.89;95510.25;5058331;28;20199;-34
2023/05/26 03:58:10;;;;;;;0.50;0.50;;;17.90;61.80;;;18.03;45.82;95516.75;5075552;28;20191;-33
2023/05/26 04:00:37;;;;;;;0.50;0.50;;;17.90;61.80;;;18.06;45.51;95510.97;5074362;28;20237;-33
2023/05/26 04:03:05;;;;;;;0.50;0.50;;;17.90;61.80;;;18.10;45.80;95516.63;5075710;28;20210;-33
2023/05/26 04:05:33;;;;;;;0.60;0.60;;;17.90;61.80;;;18.13;46.03;95524.97;5074458;28;20225;-33
2023/05/26 04:08:00;;;;;;;0.50;0.50;;;18.00;61.90;;;18.14;45.61;95518.63;5075373;28;20226;-33
2023/05/26 04:10:27;;;;;;;0.40;0.40;;;18.00;61.90;;;18.19;45.86;95520.63;5074993;28;20241;-33
2023/05/26 04:12:54;;;;;;;0.63;0.63;;;18.00;61.90;;;18.22;45.64;95512.19;5074215;28;20231;-33
2023/05/26 04:15:23;;;;;;;0.60;0.60;;;18.00;61.90;;;18.24;45.73;95515.44;5057980;28;20195;-34
2023/05/26 04:17:50;;;;;;;0.50;0.50;;;18.10;62.00;;;18.28;46.14;95521.09;5074215;28;20532;-33
2023/05/26 04:20:17;;;;;;;0.40;0.40;;;18.10;62.90;;;18.30;45.81;95517.19;5074086;28;20236;-34
2023/05/26 04:22:45;;;;;;;0.47;0.47;;;18.10;62.00;;;18.34;45.77;95522.84;5076976;28;20625;-35
2023/05/26 04:25:13;;;;;;;0.50;0.50;;;18.10;61.90;;;18.37;45.76;95519.72;5074626;28;20680;-33
2023/05/26 04:28:07;;;;;;;0.50;0.50;;;18.20;62.10;;;18.40;46.41;95521.94;5071380;28;20202;-33
2023/05/26 04:30:43;;;;;;;0.50;0.50;;;18.20;62.10;;;18.43;46.14;95516.19;5074791;28;20234;-33
2023/05/26 04:33:30;;;;;;;0.47;0.47;;;18.30;62.20;;;18.46;46.24;95515.72;5074901;28;20290;-33
2023/05/26 04:36:10;;;;;;;0.50;0.50;;;18.30;63.10;;;18.48;45.79;95520.81;5074084;28;20559;-33
2023/05/26 04:38:45;;;;;;;0.57;0.57;;;18.30;62.10;;;18.46;46.46;95513.06;5074076;28;20277;-33
2023/05/26 04:41:13;;;;;;;0.40;0.40;;;18.40;62.20;;;18.47;46.33;95519.19;5073868;28;20188;-33
2023/05/26 04:43:40;;;;;;;0.50;0.50;;;18.40;62.20;;;18.46;46.01;95510.41;5073949;28;20195;-33
2023/05/26 04:46:10;;;;;;;0.55;0.55;;;18.40;62.20;;;18.46;46.18;95522.91;5074064;28;20187;-33
2023/05/26 04:48:38;;;;;;;0.60;0.60;;;18.40;62.20;;;18.47;46.42;95521.84;5074086;28;20190;-33
2023/05/26 04:51:07;;;;;;;0.50;0.50;;;18.40;62.20;;;18.48;45.99;95524.28;5074540;28;20218;-33
2023/05/26 04:53:35;;;;;;;0.40;0.40;;;18.40;62.20;;;18.48;46.26;95524.28;5073896;28;20204;-33
2023/05/26 04:56:04;;;;;;;0.40;0.40;;;18.40;62.20;;;18.52;46.35;95524.66;5073975;28;20222;-33
2023/05/26 04:58:33;;;;;;;0.40;0.40;;;18.40;62.30;;;18.53;46.43;95519.09;5074158;28;20195;-33
2023/05/26 05:01:02;;;;;;;0.50;0.50;;;18.40;62.20;;;18.55;46.14;95524.19;5073660;28;20259;-33
2023/05/26 05:03:47;;;;;;;0.60;0.60;;;18.40;62.20;;;18.56;46.28;95531.91;5074114;28;20206;-33
2023/05/26 05:06:19;;;;;;;0.50;0.50;;;18.50;62.30;;;18.57;46.42;95535.41;5073841;28;20657;-33
2023/05/26 05:08:46;;;;;;;0.50;0.50;;;18.50;62.30;;;18.58;46.74;95528.22;5073682;28;20404;-33
2023/05/26 05:11:13;;;;;;;0.40;0.40;;;18.50;62.30;;;18.55;46.34;95527.66;5074323;28;20561;-33
2023/05/26 05:13:40;;;;;;;0.50;0.50;;;18.50;62.30;;;18.57;46.66;95532.75;5073538;28;20234;-33
2023/05/26 05:16:08;;;;;;;0.47;0.47;;;18.50;62.30;;;18.56;46.70;95529.25;5057102;28;20187;-33
2023/05/26 05:18:36;;;;;;;0.50;0.50;;;18.50;63.00;;;18.59;46.46;95541.31;5073752;28;20273;-34
2023/05/26 05:21:03;;;;;;;0.50;0.50;;;18.50;62.30;;;18.56;46.64;95539.88;5056917;28;20203;-33
2023/05/26 05:23:34;;;;;;;0.50;0.50;;;18.60;62.40;;;18.53;46.42;95535.03;5077434;28;20529;-33
2023/05/26 05:26:02;;;;;;;0.50;0.50;;;18.60;62.30;;;18.54;46.37;95535.84;5077544;28;20248;-33
2023/05/26 05:28:30;;;;;;;0.60;0.60;;;18.60;62.30;;;18.55;46.34;95540.13;5077513;28;20222;-33
2023/05/26 05:31:06;;;;;;;0.50;0.50;;;18.50;62.30;;;18.54;46.40;95541.16;5078282;28;20202;-33
2023/05/26 05:33:38;;;;;;;0.50;0.50;;;18.60;62.40;;;18.55;47.05;95542.78;5077310;28;20289;-34
2023/05/26 05:36:06;;;;;;;0.50;0.50;;;18.50;62.30;;;18.57;46.97;95540.72;5077317;28;20209;-33
2023/05/26 05:38:33;;;;;;;0.45;0.45;;;18.50;62.30;;;18.60;46.50;95544.75;5077270;28;20236;-33
2023/05/26 05:41:01;;;;;;;0.50;0.50;;;18.50;62.30;;;18.61;46.40;95544.53;5077000;28;20199;-33
2023/05/26 05:43:28;;;;;;;0.50;0.50;;;18.60;62.40;;;18.64;46.94;95548.56;5060653;28;20589;-33
2023/05/26 05:45:56;;;;;;;0.50;0.50;;;18.60;62.40;;;18.64;46.50;95544.09;5077133;28;20225;-33
2023/05/26 05:48:52;;;;;;;0.52;0.52;;;18.60;62.40;;;18.65;46.54;95542.22;5056516;28;20206;-33
2023/05/26 05:51:26;;;;;;;0.60;0.60;;;18.60;62.40;;;18.66;46.77;95536.72;5076808;28;20333;-33
2023/05/26 05:53:53;;;;;;;0.50;0.50;;;18.60;62.40;;;18.70;47.19;95552.97;5077944;28;20626;-33
2023/05/26 05:56:20;;;;;;;0.60;0.60;;;18.60;62.40;;;18.68;46.75;95545.25;5076902;28;20245;-33
2023/05/26 05:58:48;;;;;;;0.50;0.50;;;18.60;62.40;;;18.70;47.01;95553.81;5076883;28;20573;-33
2023/05/26 06:01:15;;;;;;;0.40;0.40;;;18.70;62.40;;;18.73;47.18;95547.22;5076681;28;20509;-32
2023/05/26 06:03:42;;;;;;;0.52;0.52;;;18.70;62.50;;;18.73;46.85;95541.91;5076796;28;20281;-33
2023/05/26 06:06:10;;;;;;;0.50;0.50;;;18.70;62.40;;;18.75;47.33;95549.66;5077846;28;20183;-33
2023/05/26 06:08:37;;;;;;;0.55;0.55;;;18.70;62.50;;;18.75;47.42;95550.47;5076651;28;20641;-34
2023/05/26 06:11:05;;;;;;;0.50;0.50;;;18.70;62.40;;;18.75;47.31;95553.13;5076797;28;20214;-33
2023/05/26 06:13:37;;;;;;;0.65;0.65;;;18.70;62.50;;;18.77;47.00;95555.56;5077274;28;20692;-33
2023/05/26 06:16:05;;;;;;;0.55;0.55;;;18.70;62.40;;;18.76;47.65;95557.41;5076553;28;20203;-32
2023/05/26 06:18:32;;;;;;;0.40;0.40;;;18.70;62.50;;;18.79;47.64;95558.81;5076539;28;20199;-33
2023/05/26 06:21:00;;;;;;;0.50;0.50;;;18.80;62.60;;;18.82;47.40;95558.34;5076320;28;20342;-33
2023/05/26 06:23:28;;;;;;;0.50;0.50;;;18.80;62.60;;;18.83;47.34;95555.44;5076432;28;20218;-33
2023/05/26 06:25:56;;;;;;;0.45;0.45;;;18.80;62.80;;;18.86;47.35;95559.50;5076399;28;20203;-33
2023/05/26 06:28:23;;;;;;;0.50;0.50;;;18.80;62.90;;;18.88;47.28;95558.25;5077579;28;20195;-33
2023/05/26 06:30:50;;;;;;;0.52;0.52;;;18.80;63.00;;;18.93;47.44;95557.59;5077068;28;20251;-33
2023/05/26 06:33:40;;;;;;;0.50;0.50;;;18.80;63.00;;;18.95;47.67;95565.34;5066504;28;20241;-33
2023/05/26 06:36:10;;;;;;;0.40;0.40;;;18.90;63.10;;;19.00;47.37;95565.47;5076234;28;20205;-33
2023/05/26 06:38:37;;;;;;;0.50;0.50;;;18.90;63.10;;;19.03;47.66;95575.66;5059644;28;20281;-33
2023/05/26 06:41:07;;;;;;;0.40;0.40;;;18.90;63.10;;;19.04;47.25;95571.91;5075948;28;20200;-33
2023/05/26 06:43:35;;;;;;;0.50;0.50;;;18.90;63.00;;;19.04;47.51;95570.09;5076067;28;20202;-33
2023/05/26 06:46:04;;;;;;;0.52;0.52;;;18.90;62.80;;;19.08;47.72;95574.94;5076010;28;20199;-33
2023/05/26 06:48:32;;;;;;;0.50;0.50;;;19.00;63.00;;;19.11;47.89;95571.84;5075909;28;20208;-33
2023/05/26 06:51:19;;;;;;;0.60;0.60;;;19.00;63.10;;;19.10;47.90;95565.69;5063195;28;20220;-33
2023/05/26 06:53:47;;;;;;;0.50;0.50;;;19.00;62.90;;;19.12;47.92;95571.59;5075868;28;20201;-33
2023/05/26 06:56:15;;;;;;;0.50;0.50;;;19.00;62.90;;;19.16;47.41;95569.28;5076097;28;20188;-33
2023/05/26 06:58:42;;;;;;;0.50;0.50;;;19.10;63.10;;;19.19;47.95;95571.50;5076908;28;20264;-33
2023/05/26 07:01:09;;;;;;;0.40;0.40;;;19.10;63.10;;;19.22;48.04;95581.66;5076689;28;20191;-33
2023/05/26 07:03:39;;;;;;;0.40;0.40;;;19.10;63.20;;;19.26;47.36;95582.00;5059666;28;20212;-33
2023/05/26 07:06:06;;;;;;;0.40;0.40;;;19.20;63.20;;;19.27;47.61;95573.81;5075909;28;20204;-33
2023/05/26 07:08:37;;;;;;;0.57;0.57;;;19.20;63.30;;;19.32;48.10;95575.78;5075635;28;20184;-35
2023/05/26 07:11:24;;;;;;;0.40;0.40;;;19.20;63.40;;;19.34;47.88;95576.34;5075889;28;20314;-33
2023/05/26 07:13:55;;;;;;;0.47;0.47;;;19.20;63.70;;;19.39;47.52;95578.34;5075355;28;20229;-33
2023/05/26 07:16:22;;;;;;;0.40;0.40;;;19.30;63.60;;;19.42;47.78;95581.34;5075346;28;20270;-33
2023/05/26 07:18:50;;;;;;;0.40;0.40;;;19.30;63.60;;;19.47;48.22;95583.28;5058924;28;20596;-33
2023/05/26 07:21:21;;;;;;;0.50;0.50;;;19.30;63.50;;;19.50;48.03;95582.84;5058568;28;20203;-33
2023/05/26 07:23:50;;;;;;;0.47;0.47;;;19.40;63.50;;;19.54;47.51;95583.19;5075285;28;20208;-33
2023/05/26 07:26:18;;;;;;;0.40;0.40;;;19.40;63.50;;;19.57;47.81;95585.41;5059057;28;20255;-33
2023/05/26 07:28:48;;;;;;;0.40;0.40;;;19.40;63.40;;;19.60;47.45;95584.91;5075148;28;20201;-33
2023/05/26 07:31:15;;;;;;;0.50;0.50;;;19.50;63.30;;;19.62;48.08;95578.31;5058526;28;20224;-33
2023/05/26 07:33:44;;;;;;;0.52;0.52;;;19.50;63.40;;;19.66;47.72;95586.66;5075037;28;20226;-33
2023/05/26 07:36:11;;;;;;;0.40;0.40;;;19.50;63.50;;;19.70;47.99;95584.34;5074970;28;20276;-33
2023/05/26 07:38:38;;;;;;;0.38;0.38;;;19.60;63.50;;;19.74;47.70;95580.16;5074954;28;20206;-33
2023/05/26 07:41:05;;;;;;;0.50;0.50;;;19.60;63.50;;;19.77;47.98;95583.16;5075948;28;20700;-33
2023/05/26 07:43:32;;;;;;;0.50;0.50;;;19.60;63.50;;;19.80;48.23;95585.38;5075072;28;20217;-33
2023/05/26 07:46:00;;;;;;;0.45;0.45;;;19.70;63.60;;;19.83;48.33;95576.97;5075702;28;20282;-33
2023/05/26 07:48:27;;;;;;;0.50;0.50;;;19.70;63.60;;;19.89;47.84;95593.03;5075985;28;20222;-35
2023/05/26 07:50:54;;;;;;;0.50;0.50;;;19.70;63.60;;;19.92;47.89;95581.91;5075760;28;20190;-34
2023/05/26 07:53:21;;;;;;;0.60;0.60;;;19.80;63.50;;;19.95;48.21;95586.78;5076674;28;20217;-33
2023/05/26 07:55:48;;;;;;;0.47;0.47;;;19.80;63.40;;;19.97;48.12;95585.50;5076238;28;20206;-32
2023/05/26 07:58:15;;;;;;;0.50;0.50;;;19.80;63.40;;;20.00;47.83;95582.34;5074797;28;20186;-32
2023/05/26 08:00:43;;;;;;;0.57;0.57;;;19.90;63.40;;;20.04;48.08;95579.22;5075828;28;20250;-33
2023/05/26 08:03:10;;;;;;;0.40;0.40;;;19.90;63.40;;;20.07;47.86;95573.44;5075689;28;20203;-32
2023/05/26 08:05:37;;;;;;;0.60;0.60;;;19.90;63.40;;;20.10;47.69;95583.59;5076116;28;20284;-32
2023/05/26 08:08:04;;;;;;;0.57;0.57;;;20.00;63.50;;;20.14;47.54;95588.22;5075685;28;20251;-33
2023/05/26 08:10:32;;;;;;;0.50;0.50;;;20.00;63.50;;;20.17;47.90;95581.63;5075751;28;20290;-44
2023/05/26 08:12:59;;;;;;;0.40;0.40;;;20.00;63.50;;;20.21;47.91;95585.44;5075066;28;20320;-33
2023/05/26 08:15:26;;;;;;;0.40;0.40;;;20.10;63.60;;;20.24;47.69;95584.97;5075988;28;20222;-33
2023/05/26 08:17:53;;;;;;;0.50;0.50;;;20.10;63.60;;;20.27;47.33;95581.81;5075385;28;20209;-32
2023/05/26 08:20:20;;;;;;;0.40;0.40;;;20.10;63.60;;;20.31;47.39;95587.47;5075338;28;20638;-33
2023/05/26 08:22:48;;;;;;;0.50;0.50;;;20.20;63.60;;;20.34;47.54;95587.03;5075077;28;20199;-34
2023/05/26 08:25:15;;;;;;;0.50;0.50;;;20.20;63.60;;;20.38;48.03;95590.81;5075681;28;20625;-33
2023/05/26 08:27:43;;;;;;;0.40;0.40;;;20.20;63.60;;;20.41;48.01;95586.88;5075294;28;20277;-32
2023/05/26 08:30:10;;;;;;;0.50;0.50;;;20.30;63.70;;;20.46;47.63;95587.78;5075467;28;20220;-33
2023/05/26 08:32:37;;;;;;;0.45;0.45;;;20.30;63.70;;;20.46;47.48;95586.97;5079923;28;20661;-32
2023/05/26 08:35:05;;;;;;;0.40;0.40;;;20.30;63.70;;;20.51;48.05;95595.06;5095461;28;20194;-33
2023/05/26 08:37:32;;;;;;;0.40;0.40;;;20.40;63.80;;;20.54;48.04;95585.78;5095398;28;20212;-33
2023/05/26 08:39:59;;;;;;;0.40;0.40;;;20.40;63.80;;;20.56;47.55;95589.03;5089351;28;20194;-33
2023/05/26 08:42:29;;;;;;;0.50;0.50;;;20.40;63.80;;;20.57;47.68;95590.66;5083827;28;20223;-33
2023/05/26 08:45:02;;;;;;;0.40;0.40;;;20.40;63.80;;;20.61;47.61;95602.44;5073378;28;20603;-33
2023/05/26 08:47:35;;;;;;;0.50;0.50;;;20.50;63.90;;;20.62;47.73;95596.06;5074568;28;20214;-33
2023/05/26 08:50:08;;;;;;;0.40;0.40;;;20.50;63.90;;;20.63;48.09;95595.03;5074989;28;20184;-34
2023/05/26 08:52:37;;;;;;;0.50;0.50;;;20.50;63.90;;;20.66;47.82;95601.75;5074329;28;20224;-32
2023/05/26 08:55:10;;;;;;;0.40;0.40;;;20.50;63.90;;;20.69;47.71;95593.25;5074983;28;20188;-33
2023/05/26 08:57:40;;;;;;;0.43;0.43;;;20.60;63.90;;;20.72;47.83;95593.59;5077559;28;20196;-32
2023/05/26 09:00:08;;;;;;;0.50;0.50;;;20.60;64.00;;;20.75;47.84;95595.81;5079625;28;20282;-33
2023/05/26 09:02:35;;;;;;;0.40;0.40;;;20.60;63.90;;;20.79;47.72;95588.16;5079002;28;20207;-32
2023/05/26 09:05:04;;;;;;;0.40;0.40;;;20.60;64.00;;;20.79;47.70;95586.28;5078247;28;20194;-32
2023/05/26 09:07:31;;;;;;;0.40;0.40;;;20.70;64.00;;;20.83;47.41;95591.94;5079275;28;20196;-33
2023/05/26 09:10:23;;;;;;;0.38;0.38;;;20.70;63.90;;;20.84;47.34;95582.09;5078921;28;20699;-34
2023/05/26 09:13:06;;;;;;;0.40;0.40;;;20.70;63.60;;;20.85;47.10;95581.03;5078101;28;20573;-33
2023/05/26 09:15:36;;;;;;;0.55;0.55;;;20.70;63.70;;;20.89;47.57;95584.84;5079311;28;20681;-33
2023/05/26 09:18:13;;;;;;;0.40;0.40;;;20.70;63.70;;;20.93;47.11;95584.13;5078978;28;20210;-33
2023/05/26 09:20:44;;;;;;;0.57;0.57;;;20.80;63.80;;;20.96;47.21;95577.50;5079195;28;20180;-32
2023/05/26 09:23:20;;;;;;;0.40;0.40;;;20.80;63.70;;;20.99;47.27;95581.53;5078662;28;20194;-32
2023/05/26 09:25:51;;;;;;;0.40;0.40;;;20.80;63.50;;;21.03;47.11;95577.34;5078709;28;20244;-33
2023/05/26 09:28:20;;;;;;;0.47;0.47;;;20.80;63.60;;;21.05;46.99;95588.59;5078666;28;20181;-32
2023/05/26 09:30:47;;;;;;;0.40;0.40;;;20.90;63.50;;;21.06;47.07;95583.00;5078607;28;20630;-33
2023/05/26 09:33:18;;;;;;;0.40;0.40;;;20.90;63.40;;;21.10;46.81;95589.47;5078129;28;20521;-32
2023/05/26 09:35:48;;;;;;;0.40;0.40;;;20.90;63.20;;;21.10;47.00;95589.47;5078583;28;20196;-41
2023/05/26 09:38:18;;;;;;;0.40;0.40;;;21.00;63.30;;;21.12;46.74;95583.91;5078324;28;20192;-32
2023/05/26 09:40:47;;;;;;;0.50;0.50;;;21.00;63.20;;;21.13;46.99;95590.03;5077950;28;20235;-33
2023/05/26 09:43:19;;;;;;;0.40;0.40;;;21.00;63.20;;;21.13;46.61;95587.38;5078237;28;20192;-43
2023/05/26 09:45:46;;;;;;;0.40;0.40;;;21.00;63.00;;;21.13;46.33;95588.19;5078679;28;20179;-33
2023/05/26 09:48:14;;;;;;;0.32;0.32;;;21.00;63.00;;;21.15;46.65;95585.28;5078670;28;20248;-33
2023/05/26 09:50:41;;;;;;;0.35;0.35;;;20.90;63.00;;;21.16;46.70;95594.91;5078114;28;20253;-33
2023/05/26 09:53:10;;;;;;;0.50;0.50;;;21.00;63.10;;;21.17;46.59;95585.84;5077998;28;20662;-33
2023/05/26 09:55:39;;;;;;;0.40;0.40;;;20.90;63.00;;;21.18;46.55;95587.44;5077941;28;20188;-33
2023/05/26 09:58:10;;;;;;;0.50;0.50;;;21.00;63.00;;;21.19;46.74;95589.88;5078281;28;20635;-33
2023/05/26 10:00:40;;;;;;;0.40;0.40;;;21.00;62.90;;;21.21;46.60;95587.75;5077192;28;20171;-36
2023/05/26 10:03:07;;;;;;;0.40;0.40;;;21.00;62.80;;;21.23;46.57;95593.66;5077967;28;20568;-32
2023/05/26 10:05:39;;;;;;;0.50;0.50;;;21.00;62.80;;;21.22;46.25;95586.72;5078268;28;20238;-32
2023/05/26 10:08:07;;;;;;;0.43;0.43;;;21.10;62.90;;;21.26;46.47;95587.03;5077167;28;20188;-35
2023/05/26 10:10:34;;;;;;;0.50;0.50;;;21.10;63.80;;;21.28;46.39;95584.94;5077887;28;20279;-33
2023/05/26 10:13:03;;;;;;;0.40;0.40;;;21.10;62.90;;;21.30;46.47;95582.03;5077362;28;20293;-32
2023/05/26 10:15:31;;;;;;;0.40;0.40;;;21.10;62.80;;;21.32;46.00;95577.28;5077015;28;20213;-32
2023/05/26 10:18:01;;;;;;;0.40;0.40;;;21.10;62.80;;;21.33;46.05;95582.34;5076788;28;20283;-33
2023/05/26 10:20:31;;;;;;;0.40;0.40;;;21.10;62.80;;;21.35;46.06;95588.25;5077519;28;20196;-32
2023/05/26 10:23:06;;;;;;;0.40;0.40;;;21.10;62.70;;;21.38;45.97;95590.44;5077629;28;20229;-33
2023/05/26 10:25:49;;;;;;;0.40;0.40;;;21.10;62.60;;;21.39;46.31;95586.72;5077489;28;20601;-44
2023/05/26 10:28:34;;;;;;;0.50;0.50;;;21.20;62.70;;;21.41;46.12;95583.78;5076645;28;20212;-34
2023/05/26 10:31:02;;;;;;;0.40;0.40;;;21.20;62.70;;;21.42;46.20;95585.41;5076844;28;20270;-33